If you wish to contribute or participate in the discussions about articles you are invited to join SKYbrary as a registered user

 Actions

Campbeltown Airport

From SKYbrary Wiki

EGEC
Airport
ICAO: EGEC – IATA: CAL
Summary
Name Campbeltown Airport
Region Europe
Territory United Kingdom GB.gif
Location Machrihanish, Scotland
Serving Campbeltown
Elevation 12.802 m
42 ft
42 ft12.802 m
Coordinates 55° 26' 8.52" N, 5° 41' 0.94" W
Runways
Designator Length Width Surface ROPS
11/29 3049 m10,003.281 ft
46 m150.919 ft
ASP /


METAR
Observation EGEC 290720Z 10006KT 9999 FEW015 08/08 Q1015
Station Campbeltown
Date/Time 29 September 2020 07:20:00
Wind direction 100°
Wind speed 06 kts
Lowest cloud amount few clouds
Temperature 8°C
Dew point 8°C
Humidity 100%
QNH 1015 hPa
Weather condition n/a

Campbeltown Airport

ICAO: EGEC IATA: CAL

Description

Campbeltown Airport is located at Machrihanish, 3 nm5,556 m
5.556 km
18,228.346 ft
west of Campbeltown, near the tip of the Kintyre peninsula in Argyll and Bute on the west coast of Scotland.

Climatology

Temperate Marine climate/Oceanic climate (Köppen climate classification Cfb) - Moderately cool summer and comparatively warm winter.

Maps

Terrain

Loading map...

Airport Layout

Loading map...


Accidents & Serious Incidents at or in vicinity of EGEC

None on SKYbrary